Belmont, Washington
Current Conditions -  °F | °C
As of 6:53 AM on Saturday 22 Nov 2014 (Local Time) from KPUW Reporting Station
Broken Clouds Broken Clouds  
Wind Chill: 29°   Ceiling: 5000
Heat Index: 39°   Visibility: 10mi
Dew Point: 35°   Wind: 20mph
Humidity: 86%   Direction: 260°W
Pressure: 29.62"   Gusts: 25mph
Location:  47.09°N, 117.16°W
Report Text: KPUW 221453Z AUTO 26017G22KT 10SM SCT015 SCT019 BKN050 04/02 A2962 RMK AO2 PK WND 24028/1355 SLP040 T00390017 51022
Loading
Personal Weather Stations






























Interactive Weather Map New forecast layout! Learn more

10-Day Weather Forecast

Advertisements
Track Severe Weather on mobile